Time;durP1;ratioP1;P1;durP2;ratioP2;P2;SDS_P1;SDS_P2;PMS_P1;PMS_P2;Temp;Humidity;BMP_temperature;BMP_pressure;BME280_temperature;BME280_humidity;BME280_pressure;Samples;Min_cycle;Max_cycle;Signal;HPM_P1;HPM_P2
2022/10/04 00:00:25;;;;;;;9.57;1.95;;;;;;;12.99;100.00;101630.09;4999234;28;20233;-51
2022/10/04 00:02:54;;;;;;;3.15;1.88;;;;;;;12.93;100.00;101640.59;5003779;28;20233;-50
2022/10/04 00:05:22;;;;;;;6.85;1.80;;;;;;;12.89;100.00;101642.34;5008931;28;20240;-52
2022/10/04 00:07:52;;;;;;;4.32;1.67;;;;;;;12.99;100.00;101643.28;4992659;28;20605;-53
2022/10/04 00:10:21;;;;;;;8.70;2.03;;;;;;;13.02;100.00;101648.53;4999416;28;20249;-52
2022/10/04 00:12:49;;;;;;;4.97;1.85;;;;;;;12.84;100.00;101644.06;5001577;28;20240;-51
2022/10/04 00:15:20;;;;;;;7.95;3.90;;;;;;;13.04;100.00;101652.06;5021117;28;20324;-52
2022/10/04 00:18:00;;;;;;;10.05;3.40;;;;;;;12.89;100.00;101647.63;5015807;28;20237;-53
2022/10/04 00:21:05;;;;;;;5.47;2.05;;;;;;;12.83;100.00;101642.31;4998034;28;20237;-51
2022/10/04 00:23:46;;;;;;;10.57;2.63;;;;;;;12.79;100.00;101640.53;4999928;28;20229;-52
2022/10/04 00:26:49;;;;;;;7.30;1.73;;;;;;;12.84;100.00;101641.44;4997554;28;20257;-53
2022/10/04 00:29:30;;;;;;;10.20;2.10;;;;;;;12.75;100.00;101644.03;5005590;28;20323;-51
2022/10/04 00:32:29;;;;;;;3.03;1.58;;;;;;;12.77;100.00;101642.28;4997904;28;20234;-53
2022/10/04 00:34:59;;;;;;;3.60;2.13;;;;;;;12.78;100.00;101647.56;4999661;28;20229;-53
2022/10/04 00:37:26;;;;;;;4.20;2.05;;;;;;;12.79;100.00;101644.06;5001184;28;20269;-52
2022/10/04 00:40:00;;;;;;;8.15;2.58;;;;;;;12.74;100.00;101648.44;5006438;28;20248;-52
2022/10/04 00:42:49;;;;;;;5.78;2.10;;;;;;;12.73;100.00;101651.06;4994757;28;20304;-53
2022/10/04 00:45:29;;;;;;;6.95;2.40;;;;;;;12.71;100.00;101651.06;4995353;28;20655;-52
2022/10/04 00:48:14;;;;;;;3.88;2.40;;;;;;;12.68;100.00;101647.53;4994817;28;20237;-52
2022/10/04 00:50:47;;;;;;;4.90;1.67;;;;;;;12.68;100.00;101647.53;4997215;28;20335;-51
2022/10/04 00:53:21;;;;;;;5.50;2.05;;;;;;;12.71;100.00;101648.41;5003891;28;20617;-52
2022/10/04 00:55:50;;;;;;;8.23;2.67;;;;;;;12.75;100.00;101652.81;5004668;28;20232;-52
2022/10/04 00:58:20;;;;;;;3.97;2.00;;;;;;;12.70;100.00;101648.41;4997567;28;20296;-52
2022/10/04 01:00:48;;;;;;;7.75;3.08;;;;;;;12.73;100.00;101641.38;4996837;28;20236;-52
2022/10/04 01:03:18;;;;;;;6.68;2.72;;;;;;;12.69;100.00;101642.25;5019508;28;20244;-52
2022/10/04 01:05:49;;;;;;;8.88;3.20;;;;;;;12.65;100.00;101637.84;5005884;28;20657;-52
2022/10/04 01:08:18;;;;;;;5.80;2.05;;;;;;;12.64;100.00;101636.09;5013128;28;20236;-52
2022/10/04 01:10:47;;;;;;;6.38;2.28;;;;;;;12.72;100.00;101634.38;5023398;28;20231;-52
2022/10/04 01:13:17;;;;;;;4.65;2.08;;;;;;;12.63;100.00;101629.03;5029771;28;20599;-52
2022/10/04 01:15:49;;;;;;;6.43;1.98;;;;;;;12.62;100.00;101632.56;5024252;28;21128;-51
2022/10/04 01:18:28;;;;;;;7.20;2.97;;;;;;;12.60;100.00;101631.66;4999980;28;20239;-51
2022/10/04 01:20:58;;;;;;;6.28;1.95;;;;;;;12.58;100.00;101628.16;5018034;28;20256;-52
2022/10/04 01:23:35;;;;;;;12.15;2.88;;;;;;;12.73;100.00;101628.22;5016770;28;20237;-51
2022/10/04 01:26:03;;;;;;;6.75;3.05;;;;;;;12.71;100.00;101631.75;5034726;28;21057;-52
2022/10/04 01:28:30;;;;;;;9.35;2.53;;;;;;;12.69;100.00;101628.19;5016194;28;20239;-51
2022/10/04 01:30:56;;;;;;;6.57;2.58;;;;;;;12.57;100.00;101626.41;5023444;28;20772;-52
2022/10/04 01:33:23;;;;;;;8.65;2.78;;;;;;;12.57;100.00;101629.03;5021769;28;20596;-51
2022/10/04 01:35:50;;;;;;;6.88;2.45;;;;;;;12.54;100.00;101631.66;5000024;28;20935;-53
2022/10/04 01:38:17;;;;;;;4.13;1.60;;;;;;;12.59;100.00;101629.91;4998544;28;20233;-52
2022/10/04 01:40:47;;;;;;;8.10;2.85;;;;;;;12.53;100.00;101621.97;4995735;28;20264;-52
2022/10/04 01:43:18;;;;;;;6.80;2.15;;;;;;;12.52;100.00;101625.47;4999181;28;20260;-52
2022/10/04 01:45:48;;;;;;;3.00;1.63;;;;;;;12.41;100.00;101628.06;4996504;28;20719;-52
2022/10/04 01:48:16;;;;;;;3.17;1.63;;;;;;;12.37;100.00;101613.97;4999527;28;20229;-52
2022/10/04 01:50:46;;;;;;;6.88;2.53;;;;;;;12.43;100.00;101614.91;5000535;28;20675;-53
2022/10/04 01:53:18;;;;;;;8.40;2.47;;;;;;;12.38;100.00;101623.63;5011870;28;20232;-53
2022/10/04 01:55:50;;;;;;;6.00;2.17;;;;;;;12.39;100.00;101614.88;5018879;28;20225;-53
2022/10/04 01:58:19;;;;;;;7.05;2.00;;;;;;;12.28;100.00;101616.56;5013777;28;20232;-52
2022/10/04 02:00:51;;;;;;;8.93;2.67;;;;;;;12.29;100.00;101618.34;5002684;28;20233;-53
2022/10/04 02:03:21;;;;;;;10.35;3.45;;;;;;;12.23;100.00;101618.28;5013492;28;20674;-53
2022/10/04 02:05:52;;;;;;;7.03;2.88;;;;;;;12.19;100.00;101613.88;5009517;28;20248;-52
2022/10/04 02:08:24;;;;;;;9.30;2.75;;;;;;;12.17;100.00;101608.59;5006550;28;20302;-53
2022/10/04 02:10:53;;;;;;;6.03;1.92;;;;;;;12.13;100.00;101606.81;5005912;28;20723;-51
2022/10/04 02:13:22;;;;;;;6.35;2.50;;;;;;;12.12;100.00;101598.91;5019230;28;20228;-52
2022/10/04 02:15:49;;;;;;;6.18;1.98;;;;;;;12.15;100.00;101604.22;5026540;28;20317;-52
2022/10/04 02:18:19;;;;;;;7.50;2.25;;;;;;;12.15;100.00;101606.84;5021156;28;20317;-53
2022/10/04 02:20:48;;;;;;;4.47;1.98;;;;;;;12.13;100.00;101605.94;5015454;28;20765;-51
2022/10/04 02:23:17;;;;;;;4.93;2.88;;;;;;;12.17;100.00;101607.72;4999702;28;20768;-52
2022/10/04 02:25:44;;;;;;;6.85;2.38;;;;;;;12.17;100.00;101612.97;4997520;28;20244;-53
2022/10/04 02:28:14;;;;;;;7.95;2.47;;;;;;;12.23;100.00;101613.03;4998113;28;20245;-51
2022/10/04 02:30:42;;;;;;;6.05;2.83;;;;;;;12.23;100.00;101623.56;5000859;28;20248;-53
2022/10/04 02:33:09;;;;;;;3.17;1.70;;;;;;;12.23;100.00;101615.66;5020640;28;20308;-52
2022/10/04 02:35:38;;;;;;;4.45;1.88;;;;;;;12.38;100.00;101613.09;5025241;28;20237;-52
2022/10/04 02:38:09;;;;;;;9.20;2.60;;;;;;;12.26;100.00;101606.91;5030761;28;20228;-52
2022/10/04 02:40:42;;;;;;;7.55;2.13;;;;;;;12.29;100.00;101605.16;5008603;28;20269;-52
2022/10/04 02:43:13;;;;;;;4.15;1.90;;;;;;;12.22;100.00;101608.63;5017543;28;20711;-51
2022/10/04 02:45:45;;;;;;;6.18;2.03;;;;;;;12.18;100.00;101604.22;5020074;28;21278;-51
2022/10/04 02:48:22;;;;;;;6.95;2.70;;;;;;;12.11;100.00;101599.75;5019409;28;20710;-51
2022/10/04 02:50:50;;;;;;;5.13;1.45;;;;;;;12.05;100.00;101598.00;5011795;28;20224;-52
2022/10/04 02:53:21;;;;;;;3.20;1.65;;;;;;;12.02;100.00;101592.69;5018105;28;20706;-52
2022/10/04 02:55:48;;;;;;;2.63;2.38;;;;;;;12.00;100.00;101598.81;5014336;28;20239;-53
2022/10/04 02:58:19;;;;;;;4.35;1.77;;;;;;;11.96;100.00;101602.31;5018582;28;20586;-52
2022/10/04 03:00:48;;;;;;;8.02;2.15;;;;;;;11.91;100.00;101594.38;5029480;28;20220;-52
2022/10/04 03:03:20;;;;;;;6.57;2.47;;;;;;;11.84;100.00;101588.19;5020706;28;20725;-52
2022/10/04 03:05:54;;;;;;;6.05;2.60;;;;;;;11.81;100.00;101593.41;5012574;28;20228;-52
2022/10/04 03:08:21;;;;;;;5.18;2.40;;;;;;;11.80;100.00;101591.63;4998082;28;20327;-53
2022/10/04 03:10:49;;;;;;;5.40;2.42;;;;;;;11.85;100.00;101589.94;5013654;28;20232;-52
2022/10/04 03:13:18;;;;;;;8.80;2.57;;;;;;;11.78;100.00;101598.63;5001912;28;20232;-51
2022/10/04 03:15:46;;;;;;;6.80;2.00;;;;;;;11.73;100.00;101592.47;5005640;28;20249;-53
2022/10/04 03:18:14;;;;;;;6.10;1.93;;;;;;;11.69;100.00;101594.19;4999899;28;20229;-52
2022/10/04 03:20:41;;;;;;;7.78;2.47;;;;;;;11.68;100.00;101596.78;5005872;28;20246;-52
2022/10/04 03:23:10;;;;;;;6.82;3.10;;;;;;;11.62;100.00;101592.38;5002139;28;20985;-53
2022/10/04 03:25:43;;;;;;;5.35;2.45;;;;;;;11.65;100.00;101591.50;5007699;28;20242;-52
2022/10/04 03:28:10;;;;;;;4.82;2.60;;;;;;;11.58;100.00;101597.56;4987462;28;20350;-53
2022/10/04 03:30:43;;;;;;;8.00;3.07;;;;;;;11.56;100.00;101596.69;4994617;28;20708;-52
2022/10/04 03:33:15;;;;;;;5.30;2.05;;;;;;;11.52;100.00;101595.78;5002188;28;20233;-53
2022/10/04 03:35:42;;;;;;;5.75;2.38;;;;;;;11.52;100.00;101589.66;5002992;28;20261;-52
2022/10/04 03:38:11;;;;;;;6.60;2.50;;;;;;;11.54;100.00;101598.41;5003490;28;20260;-52
2022/10/04 03:40:44;;;;;;;8.90;2.97;;;;;;;11.46;100.00;101601.88;5020474;28;20234;-55
2022/10/04 03:43:12;;;;;;;11.50;2.70;;;;;;;11.45;100.00;101594.84;5018643;28;20240;-52
2022/10/04 03:45:40;;;;;;;5.65;1.98;;;;;;;11.41;100.00;101603.59;5016136;28;20258;-50
2022/10/04 03:48:13;;;;;;;8.93;2.28;;;;;;;11.39;100.00;101607.94;5027874;28;20328;-51
2022/10/04 03:50:45;;;;;;;8.80;2.57;;;;;;;11.35;100.00;101603.53;5018847;28;20252;-51
2022/10/04 03:53:16;;;;;;;3.23;1.90;;;;;;;11.52;100.00;101606.31;5021494;28;20236;-54
2022/10/04 03:55:44;;;;;;;5.07;2.05;;;;;;;11.44;100.00;101598.34;5000162;28;20786;-51
2022/10/04 03:58:13;;;;;;;8.10;3.40;;;;;;;11.45;100.00;101602.75;4998498;28;20241;-53
2022/10/04 04:00:45;;;;;;;18.87;3.03;;;;;;;11.46;100.00;101607.13;5011821;28;21594;-53
2022/10/04 04:03:16;;;;;;;3.70;2.42;;;;;;;11.46;100.00;101607.13;5011244;28;20294;-54
2022/10/04 04:05:44;;;;;;;4.05;2.00;;;;;;;11.50;100.00;101601.91;5013658;28;20801;-51
2022/10/04 04:08:14;;;;;;;4.18;2.92;;;;;;;11.53;100.00;101602.81;5015459;28;20590;-52
2022/10/04 04:10:43;;;;;;;9.77;2.58;;;;;;;11.62;100.00;101613.41;5004644;28;21102;-54
2022/10/04 04:13:18;;;;;;;8.17;2.50;;;;;;;11.67;100.00;101610.81;4997690;28;20248;-52
2022/10/04 04:15:46;;;;;;;3.73;2.00;;;;;;;11.68;100.00;101615.19;5006028;28;20250;-52
2022/10/04 04:18:16;;;;;;;8.05;3.35;;;;;;;11.67;100.00;101610.81;5002876;28;20229;-50
2022/10/04 04:20:44;;;;;;;7.47;2.30;;;;;;;11.69;100.00;101615.22;5007345;28;21921;-53
2022/10/04 04:23:20;;;;;;;3.80;2.27;;;;;;;11.68;100.00;101617.84;5024351;28;20230;-53
2022/10/04 04:25:48;;;;;;;6.25;2.50;;;;;;;11.60;100.00;101607.25;5033131;28;20289;-51
2022/10/04 04:28:24;;;;;;;3.50;1.70;;;;;;;11.54;100.00;101608.94;5030642;28;20257;-52
2022/10/04 04:30:56;;;;;;;5.80;2.47;;;;;;;11.55;100.00;101621.22;5034217;28;20228;-54
2022/10/04 04:33:29;;;;;;;10.48;2.22;;;;;;;11.49;100.00;101611.53;5020696;28;20257;-52
2022/10/04 04:35:56;;;;;;;7.18;2.28;;;;;;;11.49;100.00;101610.66;5016076;28;20232;-51
2022/10/04 04:38:25;;;;;;;4.32;1.80;;;;;;;11.46;100.00;101612.38;5019320;28;20240;-52
2022/10/04 04:40:54;;;;;;;7.63;2.30;;;;;;;11.50;100.00;101615.03;5020935;28;20838;-53
2022/10/04 04:43:22;;;;;;;5.60;2.33;;;;;;;11.46;100.00;101611.50;5015808;28;20243;-52
2022/10/04 04:45:49;;;;;;;6.47;1.85;;;;;;;11.42;100.00;101613.22;5032172;28;20627;-52
2022/10/04 04:48:19;;;;;;;4.32;2.08;;;;;;;11.38;100.00;101618.44;5021536;28;20232;-52
2022/10/04 04:50:50;;;;;;;4.70;1.93;;;;;;;11.37;100.00;101617.56;5033235;28;20259;-51
2022/10/04 04:53:21;;;;;;;4.33;2.50;;;;;;;11.36;100.00;101626.31;5015442;28;20252;-52
2022/10/04 04:55:50;;;;;;;5.83;2.77;;;;;;;11.39;100.00;101620.19;5028970;28;20753;-52
2022/10/04 04:58:20;;;;;;;7.57;2.78;;;;;;;11.43;100.00;101622.88;5008338;28;20226;-53
2022/10/04 05:00:53;;;;;;;5.50;1.83;;;;;;;11.42;100.00;101625.50;5006263;28;20225;-52
2022/10/04 05:03:21;;;;;;;7.13;2.60;;;;;;;11.42;100.00;101621.13;4997427;28;20234;-53
2022/10/04 05:05:49;;;;;;;8.18;2.92;;;;;;;11.39;100.00;101623.72;5010160;28;20221;-52
2022/10/04 05:08:19;;;;;;;4.55;2.33;;;;;;;11.40;100.00;101625.47;5000707;28;20241;-53
2022/10/04 05:10:50;;;;;;;8.85;2.50;;;;;;;11.41;100.00;101623.75;5006965;28;20233;-51
2022/10/04 05:13:18;;;;;;;8.32;2.55;;;;;;;11.43;100.00;101622.88;4993860;28;20265;-53
2022/10/04 05:15:45;;;;;;;8.40;3.40;;;;;;;11.49;100.00;101626.44;5003477;28;20241;-52
2022/10/04 05:18:28;;;;;;;4.65;1.95;;;;;;;11.51;100.00;101619.44;5000969;28;20240;-52
2022/10/04 05:20:56;;;;;;;4.20;2.08;;;;;;;11.52;100.00;101624.72;4994651;28;20230;-52
2022/10/04 05:23:23;;;;;;;5.00;2.03;;;;;;;11.54;100.00;101628.22;5003750;28;20758;-52
2022/10/04 05:25:50;;;;;;;5.82;2.50;;;;;;;11.55;100.00;101630.00;4994567;28;20261;-52
2022/10/04 05:28:18;;;;;;;6.18;2.58;;;;;;;11.62;100.00;101628.31;4995229;28;20312;-52
2022/10/04 05:30:52;;;;;;;7.07;2.40;;;;;;;11.67;100.00;101631.88;4996704;28;20233;-53
2022/10/04 05:33:23;;;;;;;8.32;2.35;;;;;;;11.69;100.00;101631.03;5011602;28;20779;-51
2022/10/04 05:36:09;;;;;;;5.15;1.88;;;;;;;11.72;100.00;101627.50;5001761;28;20237;-51
2022/10/04 05:38:40;;;;;;;6.57;2.63;;;;;;;11.76;100.00;101629.31;5013270;28;20225;-52
2022/10/04 05:41:08;;;;;;;10.80;2.40;;;;;;;11.78;100.00;101634.59;5004489;28;20225;-53
2022/10/04 05:43:37;;;;;;;8.05;2.67;;;;;;;11.82;100.00;101631.97;5032213;28;20754;-52
2022/10/04 05:46:17;;;;;;;8.93;3.03;;;;;;;11.84;100.00;101640.81;5027200;28;20647;-51
2022/10/04 05:48:45;;;;;;;4.90;2.33;;;;;;;11.92;100.00;101636.50;5018803;28;20598;-54
2022/10/04 05:51:18;;;;;;;9.10;2.93;;;;;;;11.97;100.00;101639.19;5023715;28;20324;-54
2022/10/04 05:53:45;;;;;;;6.18;2.60;;;;;;;12.03;100.00;101649.72;5019092;28;20243;-50
2022/10/04 05:56:41;;;;;;;6.88;2.75;;;;;;;12.03;100.00;101654.13;5022636;28;22051;-52
2022/10/04 05:59:15;;;;;;;7.22;2.60;;;;;;;12.01;100.00;101650.63;5013868;28;20229;-51
2022/10/04 06:01:46;;;;;;;4.57;2.35;;;;;;;12.01;100.00;101655.88;5017025;28;20247;-52
2022/10/04 06:04:25;;;;;;;7.82;2.50;;;;;;;12.07;100.00;101645.38;5029516;28;20239;-53
2022/10/04 06:06:57;;;;;;;7.03;3.35;;;;;;;12.04;100.00;101645.34;4996224;28;20248;-52
2022/10/04 06:09:46;;;;;;;7.13;2.90;;;;;;;12.08;100.00;101650.66;5019175;28;20233;-52
2022/10/04 06:12:15;;;;;;;7.50;2.55;;;;;;;12.17;100.00;101648.06;5020478;28;20841;-51
2022/10/04 06:15:01;;;;;;;5.80;2.80;;;;;;;12.21;100.00;101646.34;5020417;28;20743;-51
2022/10/04 06:17:45;;;;;;;8.82;2.85;;;;;;;12.22;100.00;101640.22;5017522;28;20632;-52
2022/10/04 06:20:27;;;;;;;4.18;1.92;;;;;;;12.23;100.00;101642.00;5013656;28;20484;-52
2022/10/04 06:22:59;;;;;;;3.40;1.73;;;;;;;12.26;100.00;101638.50;4999460;28;20603;-52
2022/10/04 06:25:28;;;;;;;5.78;2.33;;;;;;;12.29;100.00;101644.66;5020617;28;20243;-52
2022/10/04 06:28:15;;;;;;;6.20;2.50;;;;;;;12.31;100.00;101642.91;5014925;28;20237;-52
2022/10/04 06:31:23;;;;;;;4.07;2.10;;;;;;;12.35;100.00;101649.06;5028288;28;21023;-52
2022/10/04 06:34:12;;;;;;;6.97;2.58;;;;;;;12.34;100.00;101661.38;4991573;28;20233;-52
2022/10/04 06:36:59;;;;;;;6.75;3.15;;;;;;;12.40;100.00;101658.78;5019622;28;20228;-52
2022/10/04 06:39:43;;;;;;;7.70;2.53;;;;;;;12.34;100.00;101657.84;5014640;28;20730;-52
2022/10/04 06:42:22;;;;;;;2.53;2.00;;;;;;;12.35;100.00;101659.59;5021191;28;20275;-52
2022/10/04 06:44:59;;;;;;;7.53;2.30;;;;;;;12.39;100.00;101666.69;5001658;28;20257;-51
2022/10/04 06:47:41;;;;;;;4.93;2.08;;;;;;;12.35;100.00;101667.50;4997794;28;20232;-51
2022/10/04 06:50:19;;;;;;;4.88;2.65;;;;;;;12.36;100.00;101667.53;5000485;28;20240;-52
2022/10/04 06:53:01;;;;;;;5.93;2.78;;;;;;;12.33;100.00;101667.50;5000658;28;20328;-52
2022/10/04 06:56:07;;;;;;;5.40;2.33;;;;;;;12.36;100.00;101664.91;5016675;28;20232;-52
2022/10/04 06:59:23;;;;;;;8.40;2.30;;;;;;;12.37;100.00;101665.78;5001436;28;20228;-51
2022/10/04 07:01:52;;;;;;;8.02;4.40;;;;;;;12.41;100.00;101664.91;4942073;28;20223;-51
2022/10/04 07:04:26;;;;;;;10.23;3.03;;;;;;;12.38;100.00;101671.03;4999916;28;20312;-53
2022/10/04 07:07:22;;;;;;;7.63;2.13;;;;;;;12.41;100.00;101678.97;5010570;28;20224;-51
2022/10/04 07:09:47;;;;;;;4.80;2.53;;;;;;;12.41;100.00;101664.91;4996533;28;20244;-52
2022/10/04 07:12:17;;;;;;;4.28;2.15;;;;;;;12.48;100.00;101677.25;5004418;28;20229;-51
2022/10/04 07:14:46;;;;;;;8.70;2.85;;;;;;;12.54;100.00;101677.31;4999166;28;20295;-56
2022/10/04 07:17:18;;;;;;;7.38;2.55;;;;;;;12.53;100.00;101677.28;4994435;28;20249;-51
2022/10/04 07:19:46;;;;;;;5.22;2.92;;;;;;;12.58;100.00;101684.34;5000846;28;20663;-52
2022/10/04 07:22:16;;;;;;;4.93;2.47;;;;;;;12.63;100.00;101682.59;4991405;28;20238;-52
2022/10/04 07:24:54;;;;;;;7.25;3.08;;;;;;;12.63;100.00;101689.63;4997746;28;20656;-52
2022/10/04 07:27:28;;;;;;;6.22;2.33;;;;;;;12.62;100.00;101695.78;5013676;28;20243;-52
2022/10/04 07:29:55;;;;;;;5.95;2.65;;;;;;;12.63;100.00;101701.06;5018349;28;20314;-53
2022/10/04 07:32:23;;;;;;;4.47;3.13;;;;;;;12.61;100.00;101701.94;5010752;28;20229;-52
2022/10/04 07:34:54;;;;;;;7.82;3.08;;;;;;;12.66;100.00;101702.84;5007641;28;20241;-52
2022/10/04 07:37:21;;;;;;;8.65;3.85;;;;;;;12.65;100.00;101706.34;5004269;28;20231;-51
2022/10/04 07:39:54;;;;;;;6.10;2.90;;;;;;;12.68;100.00;101703.72;5000270;28;20290;-52
2022/10/04 07:42:27;;;;;;;7.15;3.10;;;;;;;12.68;100.00;101701.09;5002457;28;20314;-52
2022/10/04 07:45:04;;;;;;;7.45;2.83;;;;;;;12.73;100.00;101699.34;5009024;28;20721;-52
2022/10/04 07:47:32;;;;;;;5.15;3.45;;;;;;;12.82;100.00;101714.34;5010114;28;20242;-52
2022/10/04 07:49:58;;;;;;;3.97;3.38;;;;;;;12.87;100.00;101712.63;5024777;28;20727;-53
2022/10/04 07:52:48;;;;;;;4.50;3.40;;;;;;;12.96;100.00;101709.16;4995751;28;20233;-52
2022/10/04 07:55:23;;;;;;;5.53;3.05;;;;;;;12.98;100.00;101710.03;5004575;28;20260;-52
2022/10/04 07:57:58;;;;;;;7.43;3.97;;;;;;;12.97;100.00;101708.28;5003429;28;20225;-52
2022/10/04 08:00:31;;;;;;;10.50;4.65;;;;;;;12.97;100.00;101713.53;5015885;28;20236;-51
2022/10/04 08:03:18;;;;;;;4.78;3.95;;;;;;;12.95;100.00;101712.66;5019409;28;20225;-52
2022/10/04 08:05:48;;;;;;;10.55;4.35;;;;;;;13.01;100.00;101712.69;5006109;28;20236;-52
2022/10/04 08:08:33;;;;;;;6.43;4.07;;;;;;;12.98;100.00;101726.72;5025396;28;20933;-51
2022/10/04 08:11:11;;;;;;;4.80;3.97;;;;;;;13.08;100.00;101722.38;4999330;28;20308;-51
2022/10/04 08:13:49;;;;;;;8.60;5.00;;;;;;;13.18;100.00;101726.81;5006780;28;20320;-52
2022/10/04 08:16:33;;;;;;;10.98;4.53;;;;;;;13.29;100.00;101730.41;5001224;28;20240;-52
2022/10/04 08:19:22;;;;;;;7.60;4.72;;;;;;;13.46;100.00;101734.88;4998899;28;20225;-52
2022/10/04 08:21:55;;;;;;;8.40;5.45;;;;;;;13.55;100.00;101729.63;5023960;28;20232;-54
2022/10/04 08:24:29;;;;;;;7.50;5.90;;;;;;;13.56;100.00;101737.53;5006546;28;20235;-50
2022/10/04 08:27:16;;;;;;;6.90;5.00;;;;;;;13.69;100.00;101746.38;4998243;28;20232;-52
2022/10/04 08:29:57;;;;;;;6.97;4.20;;;;;;;13.66;100.00;101746.38;4998202;28;20229;-52
2022/10/04 08:32:30;;;;;;;7.00;3.65;;;;;;;13.78;100.00;101741.09;5024898;28;20641;-52
2022/10/04 08:35:30;;;;;;;11.10;4.28;;;;;;;13.84;100.00;101743.75;5028309;28;20240;-53
2022/10/04 08:38:20;;;;;;;6.43;3.53;;;;;;;14.01;100.00;101737.63;5033765;28;20338;-51
2022/10/04 08:41:25;;;;;;;7.30;4.10;;;;;;;14.06;100.00;101743.78;5023207;28;20233;-52
2022/10/04 08:44:49;;;;;;;4.63;3.65;;;;;;;14.20;100.00;101734.13;5006362;28;20237;-54
2022/10/04 08:48:04;;;;;;;9.32;4.88;;;;;;;14.23;100.00;101736.75;4957377;28;20353;-52
2022/10/04 08:50:56;;;;;;;4.60;2.95;;;;;;;14.38;100.00;101746.44;4902207;29;20248;-52
2022/10/04 08:53:44;;;;;;;6.07;3.83;;;;;;;14.32;100.00;101747.34;4970125;28;20720;-52
2022/10/04 08:56:18;;;;;;;6.95;3.90;;;;;;;14.39;100.00;101742.03;5002543;28;20612;-53
2022/10/04 08:59:23;;;;;;;5.20;3.20;;;;;;;14.40;100.00;101743.81;5015726;28;20262;-52
2022/10/04 09:02:26;;;;;;;4.65;2.35;;;;;;;14.35;100.00;101740.28;5014865;28;20229;-52
2022/10/04 09:05:20;;;;;;;5.55;3.08;;;;;;;14.45;100.00;101742.03;5010906;28;20233;-53
2022/10/04 09:08:31;;;;;;;5.68;2.88;;;;;;;14.61;100.00;101730.59;4994266;28;20235;-53
2022/10/04 09:11:16;;;;;;;7.05;2.95;;;;;;;14.67;100.00;101727.97;5003278;28;20236;-53
2022/10/04 09:13:53;;;;;;;5.30;2.92;;;;;;;14.66;100.00;101736.75;5003521;28;20635;-53
2022/10/04 09:16:24;;;;;;;7.30;2.80;;;;;;;14.71;100.00;101732.34;4998779;28;20239;-52
2022/10/04 09:19:01;;;;;;;4.93;3.35;;;;;;;14.70;100.00;101738.50;5003580;28;20233;-50
2022/10/04 09:21:42;;;;;;;5.88;3.00;;;;;;;14.66;100.00;101728.81;5003240;28;20594;-52
2022/10/04 09:24:51;;;;;;;8.05;3.20;;;;;;;14.63;100.00;101726.16;5003576;28;20248;-52
2022/10/04 09:27:33;;;;;;;5.53;2.83;;;;;;;14.71;100.00;101732.34;5009182;28;20225;-52
2022/10/04 09:30:05;;;;;;;6.15;2.85;;;;;;;14.65;100.00;101744.69;5006109;28;20228;-53
2022/10/04 09:32:58;;;;;;;5.75;3.03;;;;;;;14.53;100.00;101740.28;4998482;28;20233;-52
2022/10/04 09:35:44;;;;;;;4.38;2.63;;;;;;;14.41;100.00;101746.44;4987840;28;20352;-53
2022/10/04 09:38:35;;;;;;;5.85;3.97;;;;;;;14.42;100.00;101747.31;5005936;28;20224;-52
2022/10/04 09:41:21;;;;;;;3.15;2.10;;;;;;;14.54;100.00;101736.78;5001852;28;20270;-52
2022/10/04 09:44:27;;;;;;;4.38;2.03;;;;;;;14.61;100.00;101732.38;5001938;28;20237;-52
2022/10/04 09:47:15;;;;;;;2.97;1.45;;;;;;;14.80;100.00;101739.38;5001441;28;20727;-53
2022/10/04 09:50:28;;;;;;;4.50;1.60;;;;;;;14.83;99.96;101731.44;5008777;28;20787;-52
2022/10/04 09:53:01;;;;;;;2.25;1.52;;;;;;;14.91;100.00;101732.28;4941026;28;20658;-54
2022/10/04 09:55:57;;;;;;;3.08;2.15;;;;;;;15.13;99.86;101735.75;5009498;28;20236;-53
2022/10/04 09:58:44;;;;;;;6.72;2.33;;;;;;;15.18;99.12;101726.03;5004005;28;20268;-52
2022/10/04 10:01:15;;;;;;;4.03;2.22;;;;;;;14.93;99.52;101730.53;5020151;28;20305;-51
2022/10/04 10:04:03;;;;;;;3.83;2.15;;;;;;;14.81;100.00;101725.25;5024270;28;20355;-51
2022/10/04 10:06:41;;;;;;;4.43;2.47;;;;;;;14.86;100.00;101731.41;5017267;28;21922;-53
2022/10/04 10:09:18;;;;;;;5.70;2.55;;;;;;;14.91;100.00;101732.28;5016609;28;20236;-53
2022/10/04 10:15:00;;;;;;;5.10;1.95;;;;;;;15.02;100.00;101735.78;5004941;28;20249;-51
2022/10/04 10:17:36;;;;;;;7.63;2.78;;;;;;;14.85;100.00;101734.97;5007461;28;20872;-51
2022/10/04 10:20:30;;;;;;;3.70;2.20;;;;;;;15.08;100.00;101726.06;5000904;28;20233;-52
2022/10/04 10:23:28;;;;;;;4.88;2.53;;;;;;;15.23;100.00;101734.84;5020130;28;20231;-52
2022/10/04 10:26:29;;;;;;;4.28;2.25;;;;;;;15.45;98.39;101729.44;4998183;28;20241;-52
2022/10/04 10:29:28;;;;;;;4.10;2.25;;;;;;;15.47;97.80;101730.28;5001812;28;20228;-54
2022/10/04 10:32:23;;;;;;;2.60;2.33;;;;;;;15.55;97.24;101736.44;4983137;28;20714;-52
2022/10/04 10:35:13;;;;;;;4.63;2.22;;;;;;;15.57;96.67;101734.66;5015250;28;20237;-52
2022/10/04 10:37:51;;;;;;;4.72;2.60;;;;;;;15.65;96.22;101732.81;5006435;28;20233;-52
2022/10/04 10:40:39;;;;;;;4.03;2.45;;;;;;;15.81;94.74;101731.00;4997618;28;20711;-54
2022/10/04 10:43:29;;;;;;;5.28;2.80;;;;;;;15.67;95.89;101731.09;5000501;28;20290;-52
2022/10/04 10:46:22;;;;;;;5.75;2.45;;;;;;;15.58;96.12;101725.81;5000062;28;20228;-53
2022/10/04 10:49:02;;;;;;;7.63;3.50;;;;;;;15.51;96.44;101734.69;5002709;28;20300;-52
2022/10/04 10:51:48;;;;;;;2.67;2.03;;;;;;;15.60;96.93;101726.69;5004238;28;20239;-51
2022/10/04 10:54:45;;;;;;;11.32;3.03;;;;;;;15.69;98.74;101734.63;5000217;28;20905;-52
2022/10/04 10:57:21;;;;;;;5.03;2.65;;;;;;;15.66;97.58;101734.66;5001194;28;20253;-52
2022/10/04 11:00:18;;;;;;;6.80;2.45;;;;;;;15.70;97.17;101725.78;5004235;28;20236;-53
2022/10/04 11:03:19;;;;;;;6.80;2.75;;;;;;;15.71;96.08;101735.47;5003363;28;20225;-51
2022/10/04 11:06:24;;;;;;;4.82;2.13;;;;;;;15.59;97.54;101732.88;5007420;28;20315;-51
2022/10/04 11:09:28;;;;;;;4.93;2.45;;;;;;;15.66;97.18;101734.66;5004912;28;20232;-52
2022/10/04 11:12:13;;;;;;;5.47;3.15;;;;;;;15.56;96.60;101730.25;5014433;28;20236;-53
2022/10/04 11:15:30;;;;;;;4.40;2.10;;;;;;;15.58;98.15;101736.41;5021555;28;20698;-53
2022/10/04 11:18:25;;;;;;;6.03;2.58;;;;;;;15.64;98.14;101741.66;5020101;28;20232;-52
2022/10/04 11:21:24;;;;;;;7.68;2.75;;;;;;;15.47;97.55;101739.09;5017685;28;20235;-52
2022/10/04 11:24:17;;;;;;;4.22;2.22;;;;;;;15.48;97.65;101729.44;5022807;28;20849;-51
2022/10/04 11:27:02;;;;;;;6.47;2.03;;;;;;;15.52;97.63;101723.22;5020845;28;20761;-53
2022/10/04 11:29:50;;;;;;;2.03;1.65;;;;;;;15.52;97.95;101723.22;4998818;28;20228;-52
2022/10/04 11:32:46;;;;;;;5.18;2.33;;;;;;;15.65;96.56;101714.28;5013100;28;20263;-53
2022/10/04 11:35:35;;;;;;;4.88;2.45;;;;;;;15.71;95.49;101722.25;4995861;28;20678;-52
2022/10/04 11:38:10;;;;;;;6.70;3.10;;;;;;;15.67;95.12;101712.56;5003428;28;20225;-52
2022/10/04 11:40:50;;;;;;;6.10;2.40;;;;;;;15.62;97.00;101711.69;4990860;28;20243;-51
2022/10/04 11:43:36;;;;;;;9.85;3.10;;;;;;;15.68;95.93;101716.97;4992732;28;20800;-52
2022/10/04 11:46:15;;;;;;;6.80;1.90;;;;;;;15.81;94.57;101714.25;4991613;28;20312;-54
2022/10/04 11:48:53;;;;;;;7.88;2.20;;;;;;;15.82;93.93;101710.69;4999321;28;20295;-52
2022/10/04 11:51:40;;;;;;;8.50;2.50;;;;;;;15.72;94.29;101712.53;4995432;28;20237;-51
2022/10/04 11:54:48;;;;;;;4.05;2.17;;;;;;;15.86;94.64;101707.13;5002501;28;20581;-52
2022/10/04 11:57:26;;;;;;;4.18;1.73;;;;;;;15.91;95.35;101702.69;4989236;28;20246;-53
2022/10/04 11:59:59;;;;;;;5.93;2.35;;;;;;;15.90;94.99;101701.81;4996083;28;20247;-52
2022/10/04 12:02:56;;;;;;;3.85;1.73;;;;;;;15.94;93.19;101703.56;4994431;28;20232;-53
2022/10/04 12:05:38;;;;;;;9.45;2.30;;;;;;;16.05;92.09;101699.94;4997976;28;20233;-53
2022/10/04 12:08:17;;;;;;;2.85;1.83;;;;;;;16.20;91.21;101703.34;5012575;28;20241;-52